sensor_id;sensor_type;location;lat;lon;timestamp;pressure;altitude;pressure_sealevel;temperature;humidity
58662;BME280;44432;49.786;22.760;2024-03-07T00:02:13;99776.29;;;2.27;93.37
58662;BME280;44432;49.786;22.760;2024-03-07T00:04:46;99774.77;;;2.29;93.34
58662;BME280;44432;49.786;22.760;2024-03-07T00:07:17;99775.92;;;2.29;93.48
58662;BME280;44432;49.786;22.760;2024-03-07T00:09:48;99771.91;;;2.30;93.45
58662;BME280;44432;49.786;22.760;2024-03-07T00:12:20;99773.42;;;2.30;93.31
58662;BME280;44432;49.786;22.760;2024-03-07T00:14:52;99774.41;;;2.31;93.22
58662;BME280;44432;49.786;22.760;2024-03-07T00:17:23;99772.44;;;2.30;93.36
58662;BME280;44432;49.786;22.760;2024-03-07T00:19:53;99775.23;;;2.29;93.37
58662;BME280;44432;49.786;22.760;2024-03-07T00:22:24;99774.66;;;2.30;93.23
58662;BME280;44432;49.786;22.760;2024-03-07T00:24:59;99775.31;;;2.31;93.29
58662;BME280;44432;49.786;22.760;2024-03-07T00:27:29;99774.81;;;2.30;92.95
58662;BME280;44432;49.786;22.760;2024-03-07T00:30:01;99774.02;;;2.29;92.93
58662;BME280;44432;49.786;22.760;2024-03-07T00:32:32;99777.95;;;2.30;93.33
58662;BME280;44432;49.786;22.760;2024-03-07T00:35:06;99777.45;;;2.30;92.81
58662;BME280;44432;49.786;22.760;2024-03-07T00:37:38;99773.00;;;2.31;93.00
58662;BME280;44432;49.786;22.760;2024-03-07T00:40:10;99775.39;;;2.32;93.04
58662;BME280;44432;49.786;22.760;2024-03-07T00:42:41;99774.19;;;2.32;93.05
58662;BME280;44432;49.786;22.760;2024-03-07T00:45:12;99769.30;;;2.32;93.00
58662;BME280;44432;49.786;22.760;2024-03-07T00:47:43;99772.98;;;2.32;92.70
58662;BME280;44432;49.786;22.760;2024-03-07T00:50:14;99776.49;;;2.31;92.65
58662;BME280;44432;49.786;22.760;2024-03-07T00:52:45;99778.88;;;2.32;92.70
58662;BME280;44432;49.786;22.760;2024-03-07T00:55:17;99780.40;;;2.32;92.68
58662;BME280;44432;49.786;22.760;2024-03-07T00:57:48;99772.45;;;2.32;92.71
58662;BME280;44432;49.786;22.760;2024-03-07T01:00:20;99777.45;;;2.32;92.74
58662;BME280;44432;49.786;22.760;2024-03-07T01:02:51;99777.36;;;2.31;92.50
58662;BME280;44432;49.786;22.760;2024-03-07T01:05:22;99772.41;;;2.30;92.68
58662;BME280;44432;49.786;22.760;2024-03-07T01:07:53;99774.71;;;2.30;92.48
58662;BME280;44432;49.786;22.760;2024-03-07T01:10:25;99773.29;;;2.30;92.76
58662;BME280;44432;49.786;22.760;2024-03-07T01:12:56;99770.13;;;2.27;92.46
58662;BME280;44432;49.786;22.760;2024-03-07T01:15:31;99774.15;;;2.28;92.63
58662;BME280;44432;49.786;22.760;2024-03-07T01:18:02;99769.54;;;2.27;92.28
58662;BME280;44432;49.786;22.760;2024-03-07T01:20:33;99772.02;;;2.27;92.84
58662;BME280;44432;49.786;22.760;2024-03-07T01:23:05;99774.45;;;2.27;92.58
58662;BME280;44432;49.786;22.760;2024-03-07T01:25:37;99774.74;;;2.26;92.60
58662;BME280;44432;49.786;22.760;2024-03-07T01:28:08;99778.00;;;2.26;92.68
58662;BME280;44432;49.786;22.760;2024-03-07T01:30:42;99776.41;;;2.26;92.54
58662;BME280;44432;49.786;22.760;2024-03-07T01:33:12;99773.13;;;2.26;92.61
58662;BME280;44432;49.786;22.760;2024-03-07T01:35:43;99773.83;;;2.26;92.63
58662;BME280;44432;49.786;22.760;2024-03-07T01:38:14;99774.44;;;2.25;92.33
58662;BME280;44432;49.786;22.760;2024-03-07T01:40:45;99779.01;;;2.23;92.32
58662;BME280;44432;49.786;22.760;2024-03-07T01:43:16;99776.23;;;2.21;92.33
58662;BME280;44432;49.786;22.760;2024-03-07T01:45:47;99779.73;;;2.21;92.69
58662;BME280;44432;49.786;22.760;2024-03-07T01:48:26;99774.67;;;2.19;92.75
58662;BME280;44432;49.786;22.760;2024-03-07T01:50:58;99772.80;;;2.21;92.33
58662;BME280;44432;49.786;22.760;2024-03-07T01:53:30;99772.73;;;2.21;92.42
58662;BME280;44432;49.786;22.760;2024-03-07T01:56:01;99776.39;;;2.21;92.32
58662;BME280;44432;49.786;22.760;2024-03-07T01:58:33;99775.58;;;2.22;92.54
58662;BME280;44432;49.786;22.760;2024-03-07T02:01:06;99777.12;;;2.23;92.53
58662;BME280;44432;49.786;22.760;2024-03-07T02:03:37;99779.74;;;2.22;92.67
58662;BME280;44432;49.786;22.760;2024-03-07T02:06:08;99782.80;;;2.21;92.37
58662;BME280;44432;49.786;22.760;2024-03-07T02:08:39;99778.77;;;2.22;92.53
58662;BME280;44432;49.786;22.760;2024-03-07T02:11:10;99778.60;;;2.22;92.18
58662;BME280;44432;49.786;22.760;2024-03-07T02:13:42;99778.55;;;2.22;92.42
58662;BME280;44432;49.786;22.760;2024-03-07T02:16:13;99774.95;;;2.22;92.11
58662;BME280;44432;49.786;22.760;2024-03-07T02:18:44;99778.63;;;2.21;92.51
58662;BME280;44432;49.786;22.760;2024-03-07T02:21:15;99777.41;;;2.20;92.21
58662;BME280;44432;49.786;22.760;2024-03-07T02:23:46;99777.89;;;2.18;91.97
58662;BME280;44432;49.786;22.760;2024-03-07T02:26:16;99777.61;;;2.19;92.24
58662;BME280;44432;49.786;22.760;2024-03-07T02:28:48;99778.59;;;2.20;92.31
58662;BME280;44432;49.786;22.760;2024-03-07T02:31:19;99778.70;;;2.21;92.09
58662;BME280;44432;49.786;22.760;2024-03-07T02:33:49;99779.70;;;2.19;92.13
58662;BME280;44432;49.786;22.760;2024-03-07T02:36:22;99775.04;;;2.17;92.21
58662;BME280;44432;49.786;22.760;2024-03-07T02:38:54;99781.45;;;2.17;92.08
58662;BME280;44432;49.786;22.760;2024-03-07T02:41:24;99781.07;;;2.18;92.00
58662;BME280;44432;49.786;22.760;2024-03-07T02:43:55;99780.04;;;2.18;92.12
58662;BME280;44432;49.786;22.760;2024-03-07T02:46:27;99775.73;;;2.17;91.67
58662;BME280;44432;49.786;22.760;2024-03-07T02:48:57;99774.60;;;2.16;91.97
58662;BME280;44432;49.786;22.760;2024-03-07T02:51:28;99778.23;;;2.15;91.71
58662;BME280;44432;49.786;22.760;2024-03-07T02:54:00;99780.73;;;2.14;91.99
58662;BME280;44432;49.786;22.760;2024-03-07T02:56:32;99780.79;;;2.14;91.97
58662;BME280;44432;49.786;22.760;2024-03-07T02:59:03;99782.35;;;2.13;91.68
58662;BME280;44432;49.786;22.760;2024-03-07T03:01:34;99783.08;;;2.13;91.63
58662;BME280;44432;49.786;22.760;2024-03-07T03:04:04;99785.05;;;2.13;92.06
58662;BME280;44432;49.786;22.760;2024-03-07T03:06:35;99782.39;;;2.11;91.69
58662;BME280;44432;49.786;22.760;2024-03-07T03:09:06;99786.10;;;2.11;91.82
58662;BME280;44432;49.786;22.760;2024-03-07T03:11:42;99788.73;;;2.10;91.88
58662;BME280;44432;49.786;22.760;2024-03-07T03:14:13;99787.55;;;2.10;91.72
58662;BME280;44432;49.786;22.760;2024-03-07T03:16:44;99786.00;;;2.10;91.63
58662;BME280;44432;49.786;22.760;2024-03-07T03:19:16;99791.70;;;2.10;91.67
58662;BME280;44432;49.786;22.760;2024-03-07T03:21:47;99791.59;;;2.09;91.44
58662;BME280;44432;49.786;22.760;2024-03-07T03:24:18;99792.73;;;2.10;91.57
58662;BME280;44432;49.786;22.760;2024-03-07T03:26:49;99792.23;;;2.10;91.80
58662;BME280;44432;49.786;22.760;2024-03-07T03:29:20;99789.95;;;2.10;91.67
58662;BME280;44432;49.786;22.760;2024-03-07T03:31:51;99793.55;;;2.11;91.35
58662;BME280;44432;49.786;22.760;2024-03-07T03:34:21;99796.09;;;2.10;91.65
58662;BME280;44432;49.786;22.760;2024-03-07T03:36:52;99792.92;;;2.09;91.36
58662;BME280;44432;49.786;22.760;2024-03-07T03:39:23;99795.42;;;2.08;91.46
58662;BME280;44432;49.786;22.760;2024-03-07T03:41:56;99797.52;;;2.08;91.46
58662;BME280;44432;49.786;22.760;2024-03-07T03:44:27;99799.16;;;2.08;91.39
58662;BME280;44432;49.786;22.760;2024-03-07T03:46:57;99798.31;;;2.08;91.25
58662;BME280;44432;49.786;22.760;2024-03-07T03:49:28;99798.40;;;2.08;91.22
58662;BME280;44432;49.786;22.760;2024-03-07T03:51:59;99801.33;;;2.08;90.99
58662;BME280;44432;49.786;22.760;2024-03-07T03:54:30;99805.61;;;2.07;91.18
58662;BME280;44432;49.786;22.760;2024-03-07T03:57:00;99805.02;;;2.06;91.20
58662;BME280;44432;49.786;22.760;2024-03-07T03:59:32;99807.08;;;2.06;91.24
58662;BME280;44432;49.786;22.760;2024-03-07T04:02:03;99806.65;;;2.07;91.13
58662;BME280;44432;49.786;22.760;2024-03-07T04:04:34;99806.49;;;2.07;91.08
58662;BME280;44432;49.786;22.760;2024-03-07T04:07:05;99809.15;;;2.06;91.19
58662;BME280;44432;49.786;22.760;2024-03-07T04:09:35;99808.70;;;2.05;91.01
58662;BME280;44432;49.786;22.760;2024-03-07T04:12:07;99809.63;;;2.05;90.80
58662;BME280;44432;49.786;22.760;2024-03-07T04:14:40;99811.31;;;2.04;91.40
58662;BME280;44432;49.786;22.760;2024-03-07T04:17:12;99813.64;;;2.03;91.01
58662;BME280;44432;49.786;22.760;2024-03-07T04:19:43;99813.13;;;2.01;91.03
58662;BME280;44432;49.786;22.760;2024-03-07T04:22:13;99817.44;;;1.99;90.84
58662;BME280;44432;49.786;22.760;2024-03-07T04:24:45;99818.44;;;1.98;90.79
58662;BME280;44432;49.786;22.760;2024-03-07T04:27:16;99820.05;;;1.97;91.18
58662;BME280;44432;49.786;22.760;2024-03-07T04:29:47;99823.02;;;1.95;90.88
58662;BME280;44432;49.786;22.760;2024-03-07T04:32:18;99821.22;;;1.94;90.86
58662;BME280;44432;49.786;22.760;2024-03-07T04:34:49;99821.89;;;1.90;90.80
58662;BME280;44432;49.786;22.760;2024-03-07T04:37:19;99820.36;;;1.90;90.52
58662;BME280;44432;49.786;22.760;2024-03-07T04:39:51;99825.16;;;1.89;90.82
58662;BME280;44432;49.786;22.760;2024-03-07T04:42:21;99829.27;;;1.89;90.87
58662;BME280;44432;49.786;22.760;2024-03-07T04:44:52;99831.33;;;1.88;90.68
58662;BME280;44432;49.786;22.760;2024-03-07T04:47:23;99834.21;;;1.87;90.83
58662;BME280;44432;49.786;22.760;2024-03-07T04:49:54;99837.27;;;1.84;90.57
58662;BME280;44432;49.786;22.760;2024-03-07T04:52:25;99836.66;;;1.83;90.80
58662;BME280;44432;49.786;22.760;2024-03-07T04:54:56;99840.86;;;1.82;90.77
58662;BME280;44432;49.786;22.760;2024-03-07T04:57:26;99843.55;;;1.80;90.37
58662;BME280;44432;49.786;22.760;2024-03-07T04:59:57;99844.68;;;1.77;90.53
58662;BME280;44432;49.786;22.760;2024-03-07T05:02:28;99845.73;;;1.75;90.39
58662;BME280;44432;49.786;22.760;2024-03-07T05:05:00;99848.59;;;1.74;90.36
58662;BME280;44432;49.786;22.760;2024-03-07T05:07:31;99851.95;;;1.73;90.29
58662;BME280;44432;49.786;22.760;2024-03-07T05:10:02;99855.38;;;1.74;90.42
58662;BME280;44432;49.786;22.760;2024-03-07T05:12:34;99860.04;;;1.74;90.50
58662;BME280;44432;49.786;22.760;2024-03-07T05:15:08;99860.29;;;1.73;90.48
58662;BME280;44432;49.786;22.760;2024-03-07T05:17:40;99864.41;;;1.72;90.55
58662;BME280;44432;49.786;22.760;2024-03-07T05:20:12;99865.48;;;1.72;90.15
58662;BME280;44432;49.786;22.760;2024-03-07T05:22:43;99871.86;;;1.72;90.53
58662;BME280;44432;49.786;22.760;2024-03-07T05:25:19;99872.92;;;1.72;90.00
58662;BME280;44432;49.786;22.760;2024-03-07T05:27:51;99870.48;;;1.70;90.16
58662;BME280;44432;49.786;22.760;2024-03-07T05:30:22;99876.19;;;1.68;89.85
58662;BME280;44432;49.786;22.760;2024-03-07T05:32:55;99878.20;;;1.68;89.31
58662;BME280;44432;49.786;22.760;2024-03-07T05:35:26;99875.59;;;1.65;89.12
58662;BME280;44432;49.786;22.760;2024-03-07T05:37:58;99877.85;;;1.63;88.89
58662;BME280;44432;49.786;22.760;2024-03-07T05:40:34;99881.33;;;1.63;88.75
58662;BME280;44432;49.786;22.760;2024-03-07T05:43:05;99880.97;;;1.63;88.89
58662;BME280;44432;49.786;22.760;2024-03-07T05:45:35;99886.42;;;1.63;88.36
58662;BME280;44432;49.786;22.760;2024-03-07T05:48:16;99887.98;;;1.61;88.13
58662;BME280;44432;49.786;22.760;2024-03-07T05:50:47;99890.75;;;1.61;88.28
58662;BME280;44432;49.786;22.760;2024-03-07T05:53:18;99891.96;;;1.63;88.37
58662;BME280;44432;49.786;22.760;2024-03-07T05:55:48;99887.55;;;1.64;88.40
58662;BME280;44432;49.786;22.760;2024-03-07T05:58:19;99894.78;;;1.64;88.14
58662;BME280;44432;49.786;22.760;2024-03-07T06:00:51;99889.49;;;1.63;87.76
58662;BME280;44432;49.786;22.760;2024-03-07T06:03:23;99889.73;;;1.62;87.98
58662;BME280;44432;49.786;22.760;2024-03-07T06:05:55;99889.85;;;1.63;87.90
58662;BME280;44432;49.786;22.760;2024-03-07T06:08:26;99897.10;;;1.66;88.13
58662;BME280;44432;49.786;22.760;2024-03-07T06:10:57;99898.49;;;1.68;88.23
58662;BME280;44432;49.786;22.760;2024-03-07T06:13:29;99901.73;;;1.66;87.60
58662;BME280;44432;49.786;22.760;2024-03-07T06:15:59;99903.44;;;1.64;87.32
58662;BME280;44432;49.786;22.760;2024-03-07T06:18:35;99908.61;;;1.63;87.50
58662;BME280;44432;49.786;22.760;2024-03-07T06:21:06;99911.13;;;1.64;87.63
58662;BME280;44432;49.786;22.760;2024-03-07T06:23:37;99917.92;;;1.66;87.91
58662;BME280;44432;49.786;22.760;2024-03-07T06:26:08;99920.89;;;1.66;87.42
58662;BME280;44432;49.786;22.760;2024-03-07T06:28:44;99923.46;;;1.66;87.33
58662;BME280;44432;49.786;22.760;2024-03-07T06:31:15;99927.30;;;1.63;87.14
58662;BME280;44432;49.786;22.760;2024-03-07T06:33:49;99931.08;;;1.62;87.23
58662;BME280;44432;49.786;22.760;2024-03-07T06:36:20;99933.68;;;1.62;87.00
58662;BME280;44432;49.786;22.760;2024-03-07T06:38:51;99934.53;;;1.62;87.21
58662;BME280;44432;49.786;22.760;2024-03-07T06:41:22;99935.02;;;1.62;86.83
58662;BME280;44432;49.786;22.760;2024-03-07T06:43:55;99933.77;;;1.63;87.00
58662;BME280;44432;49.786;22.760;2024-03-07T06:46:25;99933.41;;;1.61;86.77
58662;BME280;44432;49.786;22.760;2024-03-07T06:48:57;99935.92;;;1.62;86.53
58662;BME280;44432;49.786;22.760;2024-03-07T06:51:28;99936.59;;;1.62;86.87
58662;BME280;44432;49.786;22.760;2024-03-07T06:53:58;99935.73;;;1.62;86.75
58662;BME280;44432;49.786;22.760;2024-03-07T06:56:29;99938.23;;;1.61;86.46
58662;BME280;44432;49.786;22.760;2024-03-07T06:59:00;99941.24;;;1.61;86.14
58662;BME280;44432;49.786;22.760;2024-03-07T07:01:32;99945.23;;;1.59;86.27
58662;BME280;44432;49.786;22.760;2024-03-07T07:04:03;99947.60;;;1.58;86.24
58662;BME280;44432;49.786;22.760;2024-03-07T07:06:37;99948.56;;;1.58;86.48
58662;BME280;44432;49.786;22.760;2024-03-07T07:09:08;99952.91;;;1.58;86.01
58662;BME280;44432;49.786;22.760;2024-03-07T07:11:39;99953.83;;;1.56;85.97
58662;BME280;44432;49.786;22.760;2024-03-07T07:14:12;99955.63;;;1.53;85.87
58662;BME280;44432;49.786;22.760;2024-03-07T07:16:42;99953.61;;;1.51;85.72
58662;BME280;44432;49.786;22.760;2024-03-07T07:19:15;99955.39;;;1.49;85.27
58662;BME280;44432;49.786;22.760;2024-03-07T07:21:46;99961.16;;;1.46;85.28
58662;BME280;44432;49.786;22.760;2024-03-07T07:24:17;99963.66;;;1.43;84.86
58662;BME280;44432;49.786;22.760;2024-03-07T07:26:49;99962.86;;;1.39;84.75
58662;BME280;44432;49.786;22.760;2024-03-07T07:29:20;99966.70;;;1.39;85.05
58662;BME280;44432;49.786;22.760;2024-03-07T07:31:53;99972.17;;;1.39;84.96
58662;BME280;44432;49.786;22.760;2024-03-07T07:34:24;99973.02;;;1.42;85.15
58662;BME280;44432;49.786;22.760;2024-03-07T07:36:55;99972.66;;;1.42;85.13
58662;BME280;44432;49.786;22.760;2024-03-07T07:39:26;99978.91;;;1.43;85.06
58662;BME280;44432;49.786;22.760;2024-03-07T07:41:57;99979.79;;;1.43;85.02
58662;BME280;44432;49.786;22.760;2024-03-07T07:44:28;99982.59;;;1.45;84.95
58662;BME280;44432;49.786;22.760;2024-03-07T07:46:59;99986.98;;;1.46;84.67
58662;BME280;44432;49.786;22.760;2024-03-07T07:49:30;99984.48;;;1.47;84.84
58662;BME280;44432;49.786;22.760;2024-03-07T07:52:01;99988.06;;;1.50;84.58
58662;BME280;44432;49.786;22.760;2024-03-07T07:54:32;99987.43;;;1.51;84.72
58662;BME280;44432;49.786;22.760;2024-03-07T07:57:03;99985.54;;;1.53;84.71
58662;BME280;44432;49.786;22.760;2024-03-07T07:59:34;99991.00;;;1.54;84.69
58662;BME280;44432;49.786;22.760;2024-03-07T08:02:07;99990.01;;;1.55;84.57
58662;BME280;44432;49.786;22.760;2024-03-07T08:04:37;99989.45;;;1.57;84.44
58662;BME280;44432;49.786;22.760;2024-03-07T08:07:08;99987.27;;;1.58;84.71
58662;BME280;44432;49.786;22.760;2024-03-07T08:09:39;99991.82;;;1.60;84.17
58662;BME280;44432;49.786;22.760;2024-03-07T08:12:10;99989.82;;;1.59;83.90
58662;BME280;44432;49.786;22.760;2024-03-07T08:14:42;99994.36;;;1.59;84.25
58662;BME280;44432;49.786;22.760;2024-03-07T08:17:14;99994.89;;;1.60;84.19
58662;BME280;44432;49.786;22.760;2024-03-07T08:19:48;99998.91;;;1.62;83.92
58662;BME280;44432;49.786;22.760;2024-03-07T08:22:18;99997.40;;;1.63;83.85
58662;BME280;44432;49.786;22.760;2024-03-07T08:24:50;100001.42;;;1.67;84.00
58662;BME280;44432;49.786;22.760;2024-03-07T08:27:21;100003.20;;;1.68;83.81
58662;BME280;44432;49.786;22.760;2024-03-07T08:29:52;100000.96;;;1.68;83.43
58662;BME280;44432;49.786;22.760;2024-03-07T08:32:22;99999.73;;;1.72;83.71
58662;BME280;44432;49.786;22.760;2024-03-07T08:34:53;100003.53;;;1.76;83.74
58662;BME280;44432;49.786;22.760;2024-03-07T08:37:24;100005.74;;;1.81;83.60
58662;BME280;44432;49.786;22.760;2024-03-07T08:39:54;100006.27;;;1.82;83.25
58662;BME280;44432;49.786;22.760;2024-03-07T08:42:25;100008.36;;;1.82;82.94
58662;BME280;44432;49.786;22.760;2024-03-07T08:44:56;100007.94;;;1.85;82.93
58662;BME280;44432;49.786;22.760;2024-03-07T08:47:27;100005.46;;;1.89;82.96
58662;BME280;44432;49.786;22.760;2024-03-07T08:50:00;100007.77;;;1.94;82.89
58662;BME280;44432;49.786;22.760;2024-03-07T08:52:36;100005.78;;;1.99;83.07
58662;BME280;44432;49.786;22.760;2024-03-07T08:55:08;100007.86;;;2.03;82.21
58662;BME280;44432;49.786;22.760;2024-03-07T08:57:39;100012.96;;;2.08;82.37
58662;BME280;44432;49.786;22.760;2024-03-07T09:00:12;100008.50;;;2.13;82.33
58662;BME280;44432;49.786;22.760;2024-03-07T09:02:52;100006.19;;;2.19;82.22
58662;BME280;44432;49.786;22.760;2024-03-07T09:05:24;100008.22;;;2.25;81.84
58662;BME280;44432;49.786;22.760;2024-03-07T09:07:55;100011.91;;;2.30;81.69
58662;BME280;44432;49.786;22.760;2024-03-07T09:10:26;100013.23;;;2.37;81.45
58662;BME280;44432;49.786;22.760;2024-03-07T09:12:59;100012.18;;;2.43;81.11
58662;BME280;44432;49.786;22.760;2024-03-07T09:15:30;100013.40;;;2.46;80.73
58662;BME280;44432;49.786;22.760;2024-03-07T09:18:03;100017.75;;;2.50;80.60
58662;BME280;44432;49.786;22.760;2024-03-07T09:20:34;100014.59;;;2.50;80.38
58662;BME280;44432;49.786;22.760;2024-03-07T09:23:06;100019.57;;;2.54;80.55
58662;BME280;44432;49.786;22.760;2024-03-07T09:25:37;100019.81;;;2.57;80.09
58662;BME280;44432;49.786;22.760;2024-03-07T09:28:09;100023.27;;;2.61;80.28
58662;BME280;44432;49.786;22.760;2024-03-07T09:30:40;100024.50;;;2.67;80.26
58662;BME280;44432;49.786;22.760;2024-03-07T09:33:11;100027.98;;;2.72;80.03
58662;BME280;44432;49.786;22.760;2024-03-07T09:35:46;100030.67;;;2.77;79.87
58662;BME280;44432;49.786;22.760;2024-03-07T09:38:17;100029.27;;;2.81;79.89
58662;BME280;44432;49.786;22.760;2024-03-07T09:40:49;100032.02;;;2.85;79.28
58662;BME280;44432;49.786;22.760;2024-03-07T09:43:20;100029.95;;;2.86;79.37
58662;BME280;44432;49.786;22.760;2024-03-07T09:45:52;100031.33;;;2.84;78.75
58662;BME280;44432;49.786;22.760;2024-03-07T09:48:24;100028.05;;;2.82;78.59
58662;BME280;44432;49.786;22.760;2024-03-07T09:50:59;100031.44;;;2.85;78.36
58662;BME280;44432;49.786;22.760;2024-03-07T09:53:31;100030.67;;;2.86;78.35
58662;BME280;44432;49.786;22.760;2024-03-07T09:56:03;100032.42;;;2.86;78.00
58662;BME280;44432;49.786;22.760;2024-03-07T09:58:34;100030.30;;;2.88;78.13
58662;BME280;44432;49.786;22.760;2024-03-07T10:01:07;100032.67;;;2.93;78.27
58662;BME280;44432;49.786;22.760;2024-03-07T10:03:44;100030.23;;;2.96;77.87
58662;BME280;44432;49.786;22.760;2024-03-07T10:06:17;100035.83;;;2.98;77.59
58662;BME280;44432;49.786;22.760;2024-03-07T10:08:50;100035.87;;;3.01;77.65
58662;BME280;44432;49.786;22.760;2024-03-07T10:11:21;100037.16;;;3.06;77.77
58662;BME280;44432;49.786;22.760;2024-03-07T10:13:55;100036.33;;;3.11;77.09
58662;BME280;44432;49.786;22.760;2024-03-07T10:16:26;100037.48;;;3.15;77.22
58662;BME280;44432;49.786;22.760;2024-03-07T10:18:56;100034.37;;;3.18;76.98
58662;BME280;44432;49.786;22.760;2024-03-07T10:21:28;100032.05;;;3.20;76.55
58662;BME280;44432;49.786;22.760;2024-03-07T10:24:08;100032.77;;;3.24;76.59
58662;BME280;44432;49.786;22.760;2024-03-07T10:26:40;100031.36;;;3.30;76.79
58662;BME280;44432;49.786;22.760;2024-03-07T10:29:11;100032.05;;;3.33;76.18
58662;BME280;44432;49.786;22.760;2024-03-07T10:31:43;100030.16;;;3.37;76.10
58662;BME280;44432;49.786;22.760;2024-03-07T10:34:15;100034.59;;;3.45;76.44
58662;BME280;44432;49.786;22.760;2024-03-07T10:36:46;100031.67;;;3.53;76.32
58662;BME280;44432;49.786;22.760;2024-03-07T10:39:17;100035.12;;;3.59;75.85
58662;BME280;44432;49.786;22.760;2024-03-07T10:41:51;100038.02;;;3.63;75.64
58662;BME280;44432;49.786;22.760;2024-03-07T10:44:25;100036.52;;;3.68;75.64
58662;BME280;44432;49.786;22.760;2024-03-07T10:46:58;100041.67;;;3.76;75.23
58662;BME280;44432;49.786;22.760;2024-03-07T10:49:36;100038.44;;;3.84;75.34
58662;BME280;44432;49.786;22.760;2024-03-07T10:52:16;100038.46;;;3.90;75.18
58662;BME280;44432;49.786;22.760;2024-03-07T10:55:04;100038.60;;;3.96;74.77
58662;BME280;44432;49.786;22.760;2024-03-07T10:57:49;100033.80;;;3.99;74.88
58662;BME280;44432;49.786;22.760;2024-03-07T11:00:23;100036.23;;;4.08;74.63
58662;BME280;44432;49.786;22.760;2024-03-07T11:03:05;100035.47;;;4.08;73.55
58662;BME280;44432;49.786;22.760;2024-03-07T11:05:37;100028.02;;;4.03;73.47
58662;BME280;44432;49.786;22.760;2024-03-07T11:08:09;100034.52;;;4.07;73.68
58662;BME280;44432;49.786;22.760;2024-03-07T11:10:41;100038.56;;;4.11;73.66
58662;BME280;44432;49.786;22.760;2024-03-07T11:13:13;100036.95;;;4.14;73.79
58662;BME280;44432;49.786;22.760;2024-03-07T11:15:45;100031.83;;;4.16;73.64
58662;BME280;44432;49.786;22.760;2024-03-07T11:18:17;100033.09;;;4.18;73.65
58662;BME280;44432;49.786;22.760;2024-03-07T11:20:48;100033.46;;;4.19;73.41
58662;BME280;44432;49.786;22.760;2024-03-07T11:23:29;100030.61;;;4.23;73.69
58662;BME280;44432;49.786;22.760;2024-03-07T11:26:06;100033.95;;;4.28;73.72
58662;BME280;44432;49.786;22.760;2024-03-07T11:28:39;100031.90;;;4.35;73.63
58662;BME280;44432;49.786;22.760;2024-03-07T11:31:14;100034.50;;;4.39;73.08
58662;BME280;44432;49.786;22.760;2024-03-07T11:34:14;100032.02;;;4.39;72.84
58662;BME280;44432;49.786;22.760;2024-03-07T11:36:46;100031.92;;;4.40;72.58
58662;BME280;44432;49.786;22.760;2024-03-07T11:39:43;100029.13;;;4.42;72.60
58662;BME280;44432;49.786;22.760;2024-03-07T11:42:24;100033.42;;;4.44;72.48
58662;BME280;44432;49.786;22.760;2024-03-07T11:44:57;100027.13;;;4.41;71.87
58662;BME280;44432;49.786;22.760;2024-03-07T11:47:35;100029.67;;;4.36;71.59
58662;BME280;44432;49.786;22.760;2024-03-07T11:50:09;100026.67;;;4.35;71.95
58662;BME280;44432;49.786;22.760;2024-03-07T11:52:41;100029.14;;;4.33;71.58
58662;BME280;44432;49.786;22.760;2024-03-07T11:55:13;100024.34;;;4.29;71.69
58662;BME280;44432;49.786;22.760;2024-03-07T11:57:46;100024.52;;;4.27;71.78
58662;BME280;44432;49.786;22.760;2024-03-07T12:00:18;100022.26;;;4.25;71.71
58662;BME280;44432;49.786;22.760;2024-03-07T12:02:49;100026.04;;;4.24;71.79
58662;BME280;44432;49.786;22.760;2024-03-07T12:05:20;100019.13;;;4.21;71.50
58662;BME280;44432;49.786;22.760;2024-03-07T12:07:50;100020.32;;;4.22;71.40
58662;BME280;44432;49.786;22.760;2024-03-07T12:10:21;100019.82;;;4.21;71.29
58662;BME280;44432;49.786;22.760;2024-03-07T12:12:54;100022.05;;;4.23;71.63
58662;BME280;44432;49.786;22.760;2024-03-07T12:15:26;100018.17;;;4.26;71.70
58662;BME280;44432;49.786;22.760;2024-03-07T12:17:56;100018.48;;;4.32;71.79
58662;BME280;44432;49.786;22.760;2024-03-07T12:20:27;100015.08;;;4.36;71.45
58662;BME280;44432;49.786;22.760;2024-03-07T12:23:03;100019.80;;;4.41;71.33
58662;BME280;44432;49.786;22.760;2024-03-07T12:25:35;100018.39;;;4.44;71.10
58662;BME280;44432;49.786;22.760;2024-03-07T12:28:09;100007.39;;;4.48;71.13
58662;BME280;44432;49.786;22.760;2024-03-07T12:30:52;100011.98;;;4.56;71.20
58662;BME280;44432;49.786;22.760;2024-03-07T12:33:24;100005.69;;;4.59;70.89
58662;BME280;44432;49.786;22.760;2024-03-07T12:35:56;100009.20;;;4.59;70.92
58662;BME280;44432;49.786;22.760;2024-03-07T12:38:36;100010.82;;;4.64;70.89
58662;BME280;44432;49.786;22.760;2024-03-07T12:41:09;100011.90;;;4.64;70.51
58662;BME280;44432;49.786;22.760;2024-03-07T12:43:44;100013.75;;;4.63;70.41
58662;BME280;44432;49.786;22.760;2024-03-07T12:46:16;100016.13;;;4.60;70.22
58662;BME280;44432;49.786;22.760;2024-03-07T12:48:48;100014.98;;;4.60;70.61
58662;BME280;44432;49.786;22.760;2024-03-07T12:51:19;100016.27;;;4.64;70.82
58662;BME280;44432;49.786;22.760;2024-03-07T12:53:52;100017.17;;;4.67;70.45
58662;BME280;44432;49.786;22.760;2024-03-07T12:56:22;100016.97;;;4.65;70.26
58662;BME280;44432;49.786;22.760;2024-03-07T12:58:53;100020.40;;;4.66;70.17
58662;BME280;44432;49.786;22.760;2024-03-07T13:01:25;100020.79;;;4.64;70.04
58662;BME280;44432;49.786;22.760;2024-03-07T13:03:56;100021.34;;;4.62;69.91
58662;BME280;44432;49.786;22.760;2024-03-07T13:06:27;100016.52;;;4.61;70.14
58662;BME280;44432;49.786;22.760;2024-03-07T13:08:59;100016.59;;;4.62;70.37
58662;BME280;44432;49.786;22.760;2024-03-07T13:11:30;100015.52;;;4.64;70.35
58662;BME280;44432;49.786;22.760;2024-03-07T13:14:02;100017.20;;;4.66;70.12
58662;BME280;44432;49.786;22.760;2024-03-07T13:16:33;100009.59;;;4.66;69.90
58662;BME280;44432;49.786;22.760;2024-03-07T13:19:04;100014.59;;;4.68;69.89
58662;BME280;44432;49.786;22.760;2024-03-07T13:21:35;100012.15;;;4.68;69.78
58662;BME280;44432;49.786;22.760;2024-03-07T13:24:07;100010.58;;;4.70;69.75